WZZ8329 EHRD-EPKK
Flight info
| Callsign | WZZ8329 |
|---|---|
| Flight time | N/A |
| Altitude | 39000 |
| Route | LUNIX Z739 MISGO DCT BADGO DCT SWALM DCT VELIS DCT OKG DCT PADKA |
| Aircraft | A20N/M-SDE2E3FGHIRWXY/LB1 |
Departure
| Time | 2026-05-05 11:21 |
|---|---|
| Airport | Rotterdam The Hague Airport (EHRD) |
Arrival
| Time | N/A |
|---|---|
| Airport | Kraków John Paul II International Airport (EPKK) |
| Time | Latitude | Longitude | Altitude | Speed | Heading |
|---|---|---|---|---|---|
| 2026-05-05 10:50 | 51.95181 | 4.43416 | -3 ft | 0 kts | 147° |
| 2026-05-05 11:17 | 51.95179 | 4.43418 | -3 ft | 3 kts | 147° |
| 2026-05-05 11:17 | 51.95160 | 4.43453 | -2 ft | 5 kts | 115° |
| 2026-05-05 11:18 | 51.95167 | 4.43522 | -2 ft | 6 kts | 53° |
| 2026-05-05 11:18 | 51.95197 | 4.43545 | -3 ft | 10 kts | 5° |
| 2026-05-05 11:18 | 51.95261 | 4.43478 | -6 ft | 12 kts | 291° |
| 2026-05-05 11:18 | 51.95246 | 4.43401 | -4 ft | 9 kts | 233° |
| 2026-05-05 11:19 | 51.95208 | 4.43311 | -3 ft | 10 kts | 237° |
| 2026-05-05 11:19 | 51.95153 | 4.43166 | -3 ft | 16 kts | 242° |
| 2026-05-05 11:19 | 51.95113 | 4.43010 | -1 ft | 13 kts | 263° |
| 2026-05-05 11:19 | 51.95159 | 4.42902 | -1 ft | 13 kts | 325° |
| 2026-05-05 11:20 | 51.95228 | 4.42883 | 0 ft | 9 kts | 35° |
| 2026-05-05 11:20 | 51.95306 | 4.43073 | -1 ft | 42 kts | 57° |
| 2026-05-05 11:20 | 51.95609 | 4.43848 | -3 ft | 123 kts | 57° |
| 2026-05-05 11:20 | 51.96183 | 4.45274 | 272 ft | 168 kts | 56° |
| 2026-05-05 11:21 | 51.96856 | 4.46995 | 857 ft | 191 kts | 59° |
| 2026-05-05 11:21 | 51.97543 | 4.49006 | 1492 ft | 220 kts | 60° |
| 2026-05-05 11:21 | 51.98297 | 4.51300 | 2243 ft | 242 kts | 62° |
| 2026-05-05 11:21 | 51.99133 | 4.53844 | 2785 ft | 274 kts | 61° |
| 2026-05-05 11:22 | 52.00137 | 4.56518 | 2920 ft | 272 kts | 50° |
| 2026-05-05 11:22 | 52.01597 | 4.58386 | 2939 ft | 268 kts | 30° |
| 2026-05-05 11:22 | 52.03286 | 4.59697 | 2939 ft | 270 kts | 25° |
| 2026-05-05 11:22 | 52.04960 | 4.61079 | 2933 ft | 270 kts | 36° |
| 2026-05-05 11:23 | 52.06367 | 4.63092 | 2936 ft | 269 kts | 45° |
| 2026-05-05 11:23 | 52.07656 | 4.65301 | 2939 ft | 269 kts | 47° |
| 2026-05-05 11:23 | 52.08926 | 4.67535 | 2935 ft | 269 kts | 47° |
| 2026-05-05 11:23 | 52.10198 | 4.69756 | 2936 ft | 269 kts | 47° |
| 2026-05-05 11:24 | 52.11481 | 4.71973 | 2938 ft | 269 kts | 47° |
| 2026-05-05 11:24 | 52.12772 | 4.74187 | 2940 ft | 269 kts | 46° |
| 2026-05-05 11:24 | 52.14065 | 4.76394 | 2939 ft | 270 kts | 47° |
| 2026-05-05 11:24 | 52.15273 | 4.78734 | 2941 ft | 270 kts | 56° |
| 2026-05-05 11:25 | 52.16078 | 4.81480 | 2943 ft | 270 kts | 70° |
| 2026-05-05 11:25 | 52.16650 | 4.84366 | 2942 ft | 270 kts | 72° |
| 2026-05-05 11:25 | 52.17108 | 4.86904 | 2941 ft | 270 kts | 73° |
| 2026-05-05 11:25 | 52.17634 | 4.89837 | 2941 ft | 270 kts | 73° |
| 2026-05-05 11:26 | 52.18167 | 4.92774 | 2937 ft | 270 kts | 73° |
| 2026-05-05 11:26 | 52.18709 | 4.95711 | 2937 ft | 271 kts | 72° |
| 2026-05-05 11:26 | 52.19255 | 4.98646 | 2943 ft | 271 kts | 72° |
| 2026-05-05 11:26 | 52.19805 | 5.01583 | 2939 ft | 271 kts | 72° |
| 2026-05-05 11:27 | 52.20354 | 5.04521 | 2942 ft | 271 kts | 72° |
| 2026-05-05 11:27 | 52.20906 | 5.07464 | 2942 ft | 271 kts | 72° |
| 2026-05-05 11:27 | 52.21458 | 5.10412 | 2938 ft | 272 kts | 72° |
| 2026-05-05 11:27 | 52.22010 | 5.13362 | 3215 ft | 277 kts | 72° |
| 2026-05-05 11:28 | 52.22596 | 5.16497 | 3590 ft | 303 kts | 72° |
| 2026-05-05 11:28 | 52.23191 | 5.19948 | 3969 ft | 328 kts | 76° |
| 2026-05-05 11:28 | 52.23485 | 5.23767 | 4323 ft | 351 kts | 90° |
| 2026-05-05 11:28 | 52.23055 | 5.27750 | 4932 ft | 363 kts | 108° |
| 2026-05-05 11:29 | 52.21933 | 5.31461 | 5708 ft | 368 kts | 122° |
| 2026-05-05 11:29 | 52.20481 | 5.34862 | 6517 ft | 371 kts | 127° |
| 2026-05-05 11:29 | 52.18942 | 5.38216 | 7533 ft | 368 kts | 127° |
| 2026-05-05 11:29 | 52.17404 | 5.41568 | 8456 ft | 370 kts | 127° |
| 2026-05-05 11:30 | 52.15870 | 5.44962 | 9306 ft | 374 kts | 126° |
| 2026-05-05 11:30 | 52.14328 | 5.48420 | 10084 ft | 379 kts | 126° |
| 2026-05-05 11:30 | 52.12777 | 5.51930 | 10825 ft | 385 kts | 126° |
| 2026-05-05 11:30 | 52.11739 | 5.54285 | 11348 ft | 388 kts | 126° |
| 2026-05-05 11:31 | 52.10147 | 5.57866 | 12122 ft | 393 kts | 126° |
| 2026-05-05 11:31 | 52.08523 | 5.61473 | 12888 ft | 398 kts | 126° |
| 2026-05-05 11:31 | 52.06870 | 5.65128 | 13620 ft | 403 kts | 126° |
| 2026-05-05 11:31 | 52.05128 | 5.68715 | 14268 ft | 407 kts | 129° |
| 2026-05-05 11:32 | 52.02731 | 5.73444 | 15204 ft | 410 kts | 130° |
| 2026-05-05 11:32 | 52.01490 | 5.75834 | 15679 ft | 412 kts | 130° |
| 2026-05-05 11:32 | 51.99622 | 5.79384 | 16376 ft | 415 kts | 131° |
| 2026-05-05 11:32 | 51.97749 | 5.82907 | 17051 ft | 417 kts | 131° |
| 2026-05-05 11:33 | 51.95841 | 5.86482 | 17713 ft | 420 kts | 131° |
| 2026-05-05 11:33 | 51.93918 | 5.90081 | 18348 ft | 424 kts | 132° |
| 2026-05-05 11:33 | 51.91982 | 5.93703 | 18885 ft | 427 kts | 132° |
| 2026-05-05 11:33 | 51.90026 | 5.97359 | 19396 ft | 431 kts | 132° |
| 2026-05-05 11:34 | 51.88054 | 6.01039 | 19904 ft | 434 kts | 132° |
| 2026-05-05 11:34 | 51.86066 | 6.04746 | 20401 ft | 438 kts | 132° |
| 2026-05-05 11:34 | 51.84061 | 6.08471 | 20889 ft | 441 kts | 133° |
| 2026-05-05 11:34 | 51.82032 | 6.12226 | 21381 ft | 445 kts | 133° |
| 2026-05-05 11:35 | 51.79985 | 6.15997 | 21879 ft | 448 kts | 133° |
| 2026-05-05 11:35 | 51.77917 | 6.19795 | 22363 ft | 451 kts | 133° |
| 2026-05-05 11:35 | 51.75840 | 6.23601 | 22847 ft | 454 kts | 133° |
| 2026-05-05 11:35 | 51.73732 | 6.27455 | 23348 ft | 457 kts | 133° |
| 2026-05-05 11:36 | 51.71651 | 6.31252 | 23780 ft | 461 kts | 133° |
| 2026-05-05 11:36 | 51.69491 | 6.35186 | 24195 ft | 463 kts | 133° |
| 2026-05-05 11:36 | 51.67349 | 6.39082 | 24528 ft | 468 kts | 133° |
| 2026-05-05 11:36 | 51.65193 | 6.42998 | 24716 ft | 475 kts | 133° |
| 2026-05-05 11:37 | 51.62990 | 6.46992 | 25004 ft | 480 kts | 133° |
| 2026-05-05 11:37 | 51.60758 | 6.51035 | 25381 ft | 482 kts | 133° |
| 2026-05-05 11:37 | 51.58537 | 6.55055 | 25869 ft | 481 kts | 134° |
| 2026-05-05 11:37 | 51.56315 | 6.59077 | 26394 ft | 479 kts | 134° |
| 2026-05-05 11:38 | 51.54091 | 6.63099 | 26896 ft | 478 kts | 134° |
| 2026-05-05 11:38 | 51.51903 | 6.67054 | 27397 ft | 476 kts | 134° |
| 2026-05-05 11:38 | 51.49707 | 6.71017 | 27916 ft | 474 kts | 134° |
| 2026-05-05 11:38 | 51.47519 | 6.74961 | 28413 ft | 473 kts | 134° |
| 2026-05-05 11:39 | 51.45332 | 6.78895 | 28905 ft | 471 kts | 135° |
| 2026-05-05 11:39 | 51.43155 | 6.82834 | 29387 ft | 471 kts | 133° |
| 2026-05-05 11:39 | 51.41166 | 6.86997 | 29850 ft | 472 kts | 127° |
| 2026-05-05 11:39 | 51.39572 | 6.91614 | 30250 ft | 476 kts | 117° |
| 2026-05-05 11:40 | 51.38351 | 6.96548 | 30592 ft | 478 kts | 113° |
| 2026-05-05 11:40 | 51.37277 | 7.01588 | 30892 ft | 479 kts | 111° |
| 2026-05-05 11:40 | 51.36258 | 7.06683 | 31225 ft | 480 kts | 111° |
| 2026-05-05 11:40 | 51.35268 | 7.11671 | 31545 ft | 480 kts | 111° |
| 2026-05-05 11:41 | 51.34229 | 7.16790 | 31847 ft | 480 kts | 112° |
| 2026-05-05 11:41 | 51.33170 | 7.21851 | 32158 ft | 480 kts | 112° |
| 2026-05-05 11:41 | 51.32083 | 7.26897 | 32456 ft | 480 kts | 113° |
| 2026-05-05 11:41 | 51.30975 | 7.31924 | 32753 ft | 480 kts | 114° |
| 2026-05-05 11:42 | 51.29847 | 7.36953 | 33063 ft | 480 kts | 114° |
| 2026-05-05 11:42 | 51.28713 | 7.41968 | 33365 ft | 480 kts | 114° |
| 2026-05-05 11:42 | 51.27573 | 7.46979 | 33659 ft | 480 kts | 115° |
| 2026-05-05 11:42 | 51.26429 | 7.51997 | 33953 ft | 479 kts | 115° |
| 2026-05-05 11:43 | 51.25287 | 7.56997 | 34221 ft | 479 kts | 115° |
| 2026-05-05 11:43 | 51.24145 | 7.61994 | 34500 ft | 478 kts | 115° |
| 2026-05-05 11:43 | 51.23005 | 7.66974 | 34766 ft | 477 kts | 115° |
| 2026-05-05 11:43 | 51.21873 | 7.71913 | 35221 ft | 472 kts | 115° |
| 2026-05-05 11:44 | 51.20752 | 7.76790 | 35627 ft | 467 kts | 115° |
| 2026-05-05 11:44 | 51.19629 | 7.81649 | 35901 ft | 466 kts | 115° |
| 2026-05-05 11:44 | 51.18504 | 7.86499 | 36092 ft | 467 kts | 115° |
| 2026-05-05 11:44 | 51.17379 | 7.91341 | 36254 ft | 468 kts | 115° |
| 2026-05-05 11:45 | 51.16241 | 7.96234 | 36401 ft | 469 kts | 115° |
| 2026-05-05 11:45 | 51.15119 | 8.01056 | 36555 ft | 470 kts | 115° |
| 2026-05-05 11:45 | 51.13983 | 8.05941 | 36699 ft | 472 kts | 115° |
| 2026-05-05 11:45 | 51.12840 | 8.10850 | 36852 ft | 473 kts | 115° |
| 2026-05-05 11:46 | 51.11693 | 8.15767 | 37000 ft | 474 kts | 115° |
| 2026-05-05 11:46 | 51.10531 | 8.20681 | 37137 ft | 474 kts | 117° |
| 2026-05-05 11:46 | 51.09050 | 8.25323 | 37304 ft | 469 kts | 125° |
| 2026-05-05 11:46 | 51.07349 | 8.29731 | 37512 ft | 467 kts | 127° |
| 2026-05-05 11:47 | 51.05584 | 8.34070 | 37720 ft | 466 kts | 128° |
| 2026-05-05 11:47 | 51.03810 | 8.38379 | 37912 ft | 466 kts | 128° |
| 2026-05-05 11:47 | 51.02053 | 8.42694 | 38111 ft | 466 kts | 127° |
| 2026-05-05 11:47 | 51.00314 | 8.47037 | 38301 ft | 465 kts | 127° |
| 2026-05-05 11:48 | 50.96894 | 8.55759 | 38609 ft | 465 kts | 126° |
| 2026-05-05 11:48 | 50.95195 | 8.60137 | 38752 ft | 465 kts | 126° |
| 2026-05-05 11:48 | 50.93503 | 8.64503 | 38840 ft | 465 kts | 126° |
| 2026-05-05 11:49 | 50.90106 | 8.73243 | 38840 ft | 465 kts | 126° |
| 2026-05-05 11:49 | 50.86705 | 8.81953 | 38839 ft | 464 kts | 126° |
| 2026-05-05 11:50 | 50.83302 | 8.90631 | 38845 ft | 464 kts | 126° |
| 2026-05-05 11:50 | 50.79912 | 8.99240 | 38837 ft | 463 kts | 127° |
| 2026-05-05 11:51 | 50.76498 | 9.07876 | 38836 ft | 463 kts | 127° |
| 2026-05-05 11:51 | 50.73086 | 9.16503 | 38843 ft | 464 kts | 125° |
| 2026-05-05 11:52 | 50.70566 | 9.25940 | 38846 ft | 471 kts | 111° |
| 2026-05-05 11:52 | 50.68817 | 9.35800 | 38833 ft | 455 kts | 109° |
| 2026-05-05 11:53 | 50.68013 | 9.40538 | 38840 ft | 440 kts | 110° |
| 2026-05-05 11:53 | 50.67221 | 9.45144 | 38837 ft | 433 kts | 109° |
| 2026-05-05 11:53 | 50.65631 | 9.54145 | 38842 ft | 420 kts | 111° |
| 2026-05-05 11:54 | 50.63982 | 9.62843 | 38837 ft | 408 kts | 112° |
| 2026-05-05 11:54 | 50.62332 | 9.71228 | 38837 ft | 395 kts | 112° |
| 2026-05-05 11:55 | 50.60718 | 9.79358 | 38836 ft | 382 kts | 113° |
| 2026-05-05 11:55 | 50.59140 | 9.87210 | 38848 ft | 374 kts | 115° |
| 2026-05-05 11:56 | 50.57495 | 9.95015 | 38847 ft | 377 kts | 114° |
| 2026-05-05 11:56 | 50.55871 | 10.02915 | 38850 ft | 381 kts | 114° |
| 2026-05-05 11:57 | 50.54286 | 10.10856 | 38848 ft | 385 kts | 113° |
| 2026-05-05 11:57 | 50.52689 | 10.18936 | 38847 ft | 389 kts | 113° |
| 2026-05-05 11:58 | 50.51073 | 10.27101 | 38842 ft | 394 kts | 113° |
| 2026-05-05 11:58 | 50.49429 | 10.35356 | 38845 ft | 398 kts | 113° |
| 2026-05-05 11:59 | 50.47761 | 10.43691 | 38844 ft | 402 kts | 113° |
| 2026-05-05 11:59 | 50.46072 | 10.52124 | 38844 ft | 407 kts | 112° |
| 2026-05-05 12:00 | 50.44378 | 10.60611 | 38845 ft | 413 kts | 112° |
| 2026-05-05 12:00 | 50.42644 | 10.69284 | 38847 ft | 418 kts | 112° |
| 2026-05-05 12:01 | 50.40885 | 10.78040 | 38849 ft | 424 kts | 112° |
| 2026-05-05 12:01 | 50.39092 | 10.86915 | 38843 ft | 430 kts | 112° |
| 2026-05-05 12:02 | 50.37265 | 10.95918 | 38842 ft | 437 kts | 112° |
| 2026-05-05 12:02 | 50.35399 | 11.05070 | 38851 ft | 443 kts | 112° |
| 2026-05-05 12:03 | 50.33516 | 11.14264 | 38846 ft | 450 kts | 112° |
| 2026-05-05 12:03 | 50.31582 | 11.23661 | 38844 ft | 457 kts | 112° |
| 2026-05-05 12:04 | 50.29610 | 11.33196 | 38841 ft | 464 kts | 112° |
| 2026-05-05 12:04 | 50.27599 | 11.42872 | 38840 ft | 471 kts | 112° |
| 2026-05-05 12:05 | 50.25556 | 11.52661 | 38846 ft | 477 kts | 112° |
| 2026-05-05 12:05 | 50.23473 | 11.62586 | 38854 ft | 484 kts | 112° |
| 2026-05-05 12:06 | 50.21413 | 11.72505 | 39466 ft | 471 kts | 112° |
| 2026-05-05 12:06 | 50.19385 | 11.82095 | 39019 ft | 461 kts | 112° |
| 2026-05-05 12:07 | 50.18360 | 11.86839 | 38874 ft | 462 kts | 113° |
| 2026-05-05 12:07 | 50.17345 | 11.91521 | 38855 ft | 463 kts | 113° |
| 2026-05-05 12:07 | 50.15284 | 12.01047 | 38843 ft | 463 kts | 112° |
| 2026-05-05 12:08 | 50.13226 | 12.10569 | 38835 ft | 463 kts | 112° |
| 2026-05-05 12:08 | 50.11163 | 12.20097 | 38825 ft | 464 kts | 112° |
| 2026-05-05 12:09 | 50.09099 | 12.29590 | 38816 ft | 461 kts | 112° |
| 2026-05-05 12:09 | 50.07119 | 12.39110 | 38809 ft | 466 kts | 105° |
| 2026-05-05 12:10 | 50.06645 | 12.49254 | 38819 ft | 472 kts | 93° |
| 2026-05-05 12:10 | 50.06651 | 12.59487 | 38824 ft | 474 kts | 92° |
| 2026-05-05 12:11 | 50.06673 | 12.69704 | 38821 ft | 474 kts | 92° |
| 2026-05-05 12:11 | 50.06678 | 12.80041 | 38822 ft | 475 kts | 92° |
| 2026-05-05 12:12 | 50.06671 | 12.90247 | 38828 ft | 475 kts | 92° |
| 2026-05-05 12:12 | 50.06653 | 13.00530 | 38826 ft | 475 kts | 92° |
| 2026-05-05 12:13 | 50.06626 | 13.10835 | 38822 ft | 475 kts | 92° |
| 2026-05-05 12:13 | 50.06589 | 13.21139 | 38818 ft | 476 kts | 92° |
| 2026-05-05 12:14 | 50.06544 | 13.31447 | 38808 ft | 476 kts | 92° |
| 2026-05-05 12:14 | 50.06489 | 13.41752 | 38805 ft | 476 kts | 92° |
| 2026-05-05 12:15 | 50.06426 | 13.52052 | 38802 ft | 476 kts | 92° |
| 2026-05-05 12:15 | 50.06353 | 13.62340 | 38800 ft | 476 kts | 92° |
| 2026-05-05 12:16 | 50.06271 | 13.72581 | 38806 ft | 476 kts | 92° |
| 2026-05-05 12:16 | 50.06180 | 13.82868 | 38809 ft | 476 kts | 92° |
| 2026-05-05 12:17 | 50.06081 | 13.93175 | 38819 ft | 476 kts | 92° |
| 2026-05-05 12:17 | 50.05972 | 14.03478 | 38824 ft | 475 kts | 92° |
| 2026-05-05 12:18 | 50.05854 | 14.13768 | 38831 ft | 475 kts | 92° |
| 2026-05-05 12:18 | 50.05749 | 14.22316 | 38829 ft | 475 kts | 93° |
| 2026-05-05 12:19 | 50.05615 | 14.32596 | 38829 ft | 475 kts | 93° |
| 2026-05-05 12:19 | 50.05472 | 14.42884 | 38825 ft | 475 kts | 93° |
| 2026-05-05 12:20 | 50.05320 | 14.53093 | 38830 ft | 475 kts | 93° |
| 2026-05-05 12:20 | 50.05158 | 14.63425 | 38828 ft | 475 kts | 93° |
| 2026-05-05 12:21 | 50.04987 | 14.73706 | 38826 ft | 475 kts | 93° |
| 2026-05-05 12:21 | 50.04808 | 14.83972 | 38818 ft | 475 kts | 93° |
| 2026-05-05 12:22 | 50.04620 | 14.94186 | 38815 ft | 475 kts | 93° |
| 2026-05-05 12:22 | 50.04423 | 15.04459 | 38806 ft | 474 kts | 93° |
| 2026-05-05 12:23 | 50.04216 | 15.14719 | 38800 ft | 474 kts | 93° |
| 2026-05-05 12:23 | 50.04001 | 15.24974 | 38806 ft | 474 kts | 93° |
| 2026-05-05 12:24 | 50.03777 | 15.35230 | 38806 ft | 474 kts | 93° |
| 2026-05-05 12:24 | 50.03545 | 15.45392 | 38801 ft | 474 kts | 93° |
| 2026-05-05 12:25 | 50.03303 | 15.55635 | 38800 ft | 473 kts | 94° |
| 2026-05-05 12:25 | 50.03053 | 15.65874 | 38802 ft | 473 kts | 94° |
| 2026-05-05 12:26 | 50.02793 | 15.76087 | 38804 ft | 473 kts | 94° |
| 2026-05-05 12:26 | 50.02525 | 15.86295 | 38801 ft | 472 kts | 94° |